Flight Track Log - Related Links

Times and Time Zones

All times are in EDT time to prevent confusion due to time zone crossing. See the EJA922 flight status page for this flight to view local times or setup timezone preferences in your user account.

Time Position Orientation Groundspeed Altitude Reporting Facility
EDT Latitude Longitude Course Direction KTS MPH feet Rate Location/Type
Tue 02:23:51 PM 39.5333 -104.8500 45° Northeast 190 219 7,600  Level Denver TRACON
Tue 02:24:51 PM 39.5167 -104.8000 113° Southeast 242 278 8,100 1,050 Climbing Denver TRACON
Tue 02:25:51 PM 39.5833 -104.7500 30° Northeast 299 344 9,700 1,650 Climbing Denver TRACON
Tue 02:26:51 PM 39.6667 -104.7167 17° North 349 402 11,400 2,150 Climbing Denver TRACON
Tue 02:27:51 PM 39.7667 -104.6667 21° North 383 441 14,000 2,950 Climbing Denver TRACON
Tue 02:28:51 PM 39.8667 -104.6167 21° North 368 423 17,300 2,733 Climbing Denver TRACON
Tue 02:29:00 PM 39.8771 -104.1295 45° Northeast  Level Estimated
Tue 02:29:32 PM 39.9100 -104.5886 26° Northeast 366 421 18,600  Level Denver Center
Tue 02:30:34 PM 40.0297 -104.5256 22° Northeast 382 440 20,400 1,452 Climbing Denver Center
Tue 02:31:36 PM 40.1444 -104.4644 22° Northeast 413 475 21,600 1,104 Climbing Denver Center
Tue 02:32:39 PM 40.2594 -104.4033 22° Northeast 439 505 22,700 1,152 Climbing Denver Center
Tue 02:33:41 PM 40.3861 -104.3356 22° Northeast 455 524 24,000 1,161 Climbing Denver Center
Tue 02:34:43 PM 40.4897 -104.2808 22° Northeast 457 526 25,100 1,306 Climbing Denver Center
Tue 02:35:45 PM 40.6253 -104.1731 31° Northeast 473 544 26,700 1,403 Climbing Denver Center
Tue 02:36:47 PM 40.7236 -104.0481 44° Northeast 489 563 28,000 1,147 Climbing Denver Center
Tue 02:38:01 PM 40.8233 -103.9217 44° Northeast 499 574 29,300 1,235 Climbing Denver Center
Tue 02:39:03 PM 40.9456 -103.7636 44° Northeast 514 592 30,800 1,452 Climbing Denver Center
Tue 02:40:05 PM 41.0575 -103.6183 44° Northeast 521 600 32,300 1,401 Climbing Denver Center
Tue 02:41:20 PM 41.1719 -103.4667 45° Northeast 522 601 34,000 1,182 Climbing Denver Center
Tue 02:42:22 PM 41.2889 -103.3142 44° Northeast 528 608 35,000 1,065 Climbing Denver Center
Tue 02:43:24 PM 41.3967 -103.1442 50° Northeast 541 623 36,200 1,355 Climbing Denver Center
Tue 02:44:26 PM 41.4303 -102.9869 74° East 552 635 37,800 1,984 Climbing Denver Center
Tue 02:45:28 PM 41.4728 -102.7422 77° East 533 613 40,300 1,548 Climbing Denver Center
Tue 02:46:30 PM 41.5086 -102.5356 77° East 533 613 41,000 336 Climbing Denver Center
Tue 02:47:33 PM 41.5403 -102.3436 78° East 548 631 41,000  Level Denver Center
Tue 02:48:35 PM 41.5744 -102.1494 77° East 559 643 41,000  Level Denver Center
Tue 02:49:37 PM 41.6133 -101.9194 77° East 566 651 41,000  Level Denver Center
Tue 02:50:39 PM 41.6461 -101.7217 77° East 568 654 41,000  Level Denver Center
Tue 02:51:40 PM 41.6797 -101.5233 77° East 569 655 41,000  Level Denver Center
Tue 02:52:43 PM 41.7161 -101.2956 78° East 563 648 41,000  Level Denver Center
Tue 02:53:45 PM 41.7522 -101.0658 78° East 563 648 41,000  Level Denver Center
Tue 02:54:47 PM 41.7825 -100.8692 78° East 563 648 41,000  Level Denver Center
Tue 02:55:49 PM 41.8186 -100.6400 78° East 562 647 41,000  Level Denver Center
Tue 02:56:51 PM 41.8486 -100.4425 78° East 563 648 41,000  Level Denver Center
Tue 02:57:53 PM 41.8781 -100.2461 79° East 561 646 41,000  Level Denver Center
Tue 02:58:55 PM 41.9122 -100.0183 79° East 558 642 41,000  Level Denver Center
Tue 02:59:57 PM 41.9417 -99.8228 78° East 559 643 41,000  Level Denver Center
Tue 03:00:59 PM 41.9742 -99.5939 79° East 557 641 41,000  Level Denver Center
Tue 03:02:00 PM 41.9981 -99.4300 79° East 556 640 41,000  Level Denver Center
Tue 03:02:49 PM 42.0275 -99.2261 79° East 555 639 41,000  Level Minneapolis Center
Tue 03:03:51 PM 42.0558 -99.0211 79° East 555 639 41,000  Level Minneapolis Center
Tue 03:04:52 PM 42.0850 -98.8164 79° East 556 640 41,000  Level Minneapolis Center
Tue 03:05:54 PM 42.1122 -98.6128 80° East 551 634 41,000  Level Minneapolis Center
Tue 03:06:56 PM 42.1486 -98.4119 76° East 552 635 41,000  Level Minneapolis Center
Tue 03:07:58 PM 42.2092 -98.2250 66° East 546 628 41,000  Level Minneapolis Center
Tue 03:09:00 PM 42.2819 -98.0000 66° East 544 626 41,000  Level Minneapolis Center
Tue 03:10:02 PM 42.3431 -97.8108 66° East 547 629 41,000  Level Minneapolis Center
Tue 03:11:04 PM 42.4078 -97.6200 65° Northeast 543 625 41,000  Level Minneapolis Center
Tue 03:12:06 PM 42.4683 -97.4297 67° East 548 631 41,000  Level Minneapolis Center
Tue 03:13:08 PM 42.5283 -97.2433 66° East 542 624 41,000  Level Minneapolis Center
Tue 03:14:09 PM 42.5875 -97.0556 67° East 541 623 41,000  Level Minneapolis Center
Tue 03:15:11 PM 42.6475 -96.8669 67° East 541 623 41,000  Level Minneapolis Center
Tue 03:16:13 PM 42.7147 -96.6472 67° East 542 624 41,000  Level Minneapolis Center
Tue 03:17:15 PM 42.7736 -96.4614 67° East 540 621 41,000  Level Minneapolis Center
Tue 03:18:17 PM 42.8308 -96.2736 67° East 540 621 41,000  Level Minneapolis Center
Tue 03:19:19 PM 42.8886 -96.0856 67° East 541 623 41,000  Level Minneapolis Center
Tue 03:20:21 PM 42.9456 -95.9003 67° East 537 618 41,000  Level Minneapolis Center
Tue 03:21:22 PM 43.0017 -95.7136 68° East 535 616 41,000 -683 Level Minneapolis Center
Tue 03:22:24 PM 43.0675 -95.4950 68° East 525 604 39,600 -1,258 Descending Minneapolis Center
Tue 03:23:26 PM 43.1225 -95.3067 68° East 533 613 38,400 -1,161 Descending Minneapolis Center
Tue 03:24:28 PM 43.1769 -95.1244 68° East 525 604 37,200 -1,171 Descending Minneapolis Center
Tue 03:25:29 PM 43.2314 -94.9394 68° East 526 605 36,000 -1,171 Descending Minneapolis Center
Tue 03:26:31 PM 43.2836 -94.7578 68° East 520 598 34,800 -968 Descending Minneapolis Center
Tue 03:27:33 PM 43.3358 -94.5750 68° East 517 595 34,000 -387 Descending Minneapolis Center
Tue 03:28:35 PM 43.4000 -94.3522 68° East 523 602 34,000 -146 Level Minneapolis Center
Tue 03:29:36 PM 43.4458 -94.1917 68° East 529 609 33,700 -1,317 Descending Minneapolis Center
Tue 03:30:38 PM 43.5081 -93.9639 69° East 535 616 31,300 -2,177 Descending Minneapolis Center
Tue 03:31:40 PM 43.5633 -93.7747 68° East 534 615 29,200 -1,597 Descending Minneapolis Center
Tue 03:32:42 PM 43.6153 -93.5881 69° East 529 609 28,000 -1,306 Descending Minneapolis Center
Tue 03:33:44 PM 43.6642 -93.4086 69° East 511 588 26,500 -2,049 Descending Minneapolis Center
Tue 03:34:45 PM 43.7094 -93.2419 69° East 482 555 23,800 -2,732 Descending Minneapolis Center
Tue 03:35:47 PM 43.7544 -93.0764 69° East 471 542 20,900 -3,339 Descending Minneapolis Center
Tue 03:36:49 PM 43.8050 -92.8928 69° East 454 522 16,900 -3,581 Descending Minneapolis Center
Tue 03:37:51 PM 43.8381 -92.7631 71° East 390 449 13,500 -3,145 Descending Minneapolis Center
Tue 03:38:53 PM 43.8708 -92.6436 69° East 359 413 10,400 -3,097 Descending Minneapolis Center
Tue 03:39:55 PM 43.9114 -92.5481 59° Northeast 286 329 7,100 -2,855 Descending Minneapolis Center
Tue 03:40:57 PM 43.9697 -92.4819 39° Northeast 267 307 4,500 -1,839 Descending Minneapolis Center
Tue 03:41:59 PM 44.0256 -92.5211 333° Northwest 234 269 3,300 -726 Descending Minneapolis Center
Tue 03:43:01 PM 44.0411 -92.5958 286° West 203 234 3,000 -146 Descending Minneapolis Center
Tue 03:44:02 PM 43.9994 -92.6208 203° Southwest 178 205 3,000 -195 Level Minneapolis Center
Tue 03:45:04 PM 43.9664 -92.5828 140° Southeast 142 163 2,600 -484 Descending Minneapolis Center
Tue 03:46:06 PM 43.9447 -92.5506 133° Southeast 119 137 2,000 -581 Descending Minneapolis Center
Tue 03:47:08 PM 43.9211 -92.5144 132° Southeast 118 136 1,400 -387 Descending Minneapolis Center
Tue 03:48:10 PM 43.9022 -92.4869 134° Southeast 117 135 1,200 -194 Descending Minneapolis Center

Login

Don't have an account? Register now (free) for customized features, flight alerts, and more!